»·PEaware :: AWE180 KONT-KOAK

AWE180 :: KONT-KOAK

FLIGHT INFORMATION

Flight Status: Arrived
Operator:
US Airways
More flights by this operator :: More flights under this callsign
Pilot: Etienne B. (28927)
Aircraft: AIRBUS A320
(A320)
More flights by this aircraft type
Origin: KONT Ontario Intl
United States
Destination: KOAK Metro Oakland Intl
United States
More flights between these airports :: More routes between these airports
Route: SNSHN4 COREZ RGOOD EMZOH3
File this flight plan on PilotEdge
Remarks: RMK / SIMBRIEF
Altitude:
(Current/Filed)
36,000ft
Speed:
(Current/Filed)
443kts
Departed: 18-Apr-20 05:39 PM
Arrived: 18-Apr-20 06:39 PM
Distance/Time
Traveled:
314nm/1:00
Distance/Time
To Go:
Arrived

Flight Plot

Page will automatically refresh every two minutes.

Flight plan parsing failed; only flown route is shown


Map Options




Map Legend


Flown Route
Filed Route
Departure Airport
Arrival Airport
Navaid (VOR, NDB)
Fix

Horizontal Profiles

Position Reports

Time Latitude Longitude Heading Altitude Ground
Speed
18-Apr-20 17:12 34.060030 -117.595234 0 941ft 0kts
18-Apr-20 17:13 34.060030 -117.595234 0 941ft 0kts
18-Apr-20 17:14 34.060030 -117.595234 0 941ft 0kts
18-Apr-20 17:15 34.060030 -117.595234 0 941ft 0kts
18-Apr-20 17:16 34.060030 -117.595234 0 941ft 0kts
18-Apr-20 17:17 34.060030 -117.595234 0 941ft 0kts
18-Apr-20 17:18 34.060030 -117.595234 0 941ft 0kts
18-Apr-20 17:19 34.060030 -117.595234 0 941ft 0kts
18-Apr-20 17:20 34.060030 -117.595234 0 941ft 0kts
18-Apr-20 17:21 34.060030 -117.595234 0 941ft 0kts
18-Apr-20 17:22 34.060030 -117.595234 0 941ft 0kts
18-Apr-20 17:23 34.060030 -117.595234 0 941ft 0kts
18-Apr-20 17:24 34.059473 -117.595238 0 940ft 2kts
18-Apr-20 17:25 34.059019 -117.595596 73 939ft 2kts
18-Apr-20 17:26 34.058999 -117.595799 89 939ft 0kts
18-Apr-20 17:27 34.058999 -117.595799 89 939ft 0kts
18-Apr-20 17:28 34.058999 -117.595799 89 939ft 0kts
18-Apr-20 17:29 34.058999 -117.595799 89 939ft 0kts
18-Apr-20 17:30 34.058999 -117.595799 89 939ft 0kts
18-Apr-20 17:31 34.058999 -117.595799 89 939ft 0kts
18-Apr-20 17:32 34.058999 -117.595799 89 939ft 0kts
18-Apr-20 17:33 34.058996 -117.593689 89 939ft 11kts
18-Apr-20 17:34 34.059000 -117.588334 89 940ft 23kts
18-Apr-20 17:35 34.058434 -117.582456 180 940ft 9kts
18-Apr-20 17:36 34.058035 -117.582466 180 939ft 0kts
18-Apr-20 17:37 34.057933 -117.582469 181 939ft 4kts
18-Apr-20 17:38 34.056853 -117.594448 270 932ft 142kts
18-Apr-20 17:39 34.056940 -117.653015 268 3527ft 204kts
18-Apr-20 17:40 34.064625 -117.729463 292 6354ft 253kts
18-Apr-20 17:41 34.092531 -117.807791 309 9542ft 270kts
18-Apr-20 17:42 34.141784 -117.882288 306 11765ft 316kts
18-Apr-20 17:43 34.195223 -117.970671 305 14371ft 332kts
18-Apr-20 17:44 34.249179 -118.062010 304 16951ft 337kts
18-Apr-20 17:45 34.305234 -118.153962 306 19226ft 344kts
18-Apr-20 17:46 34.363695 -118.246250 305 21258ft 350kts
18-Apr-20 17:47 34.422893 -118.339954 305 23098ft 355kts
18-Apr-20 17:48 34.483505 -118.436148 304 24726ft 361kts
18-Apr-20 17:49 34.544745 -118.533602 304 26204ft 366kts
18-Apr-20 17:50 34.606699 -118.632465 304 27529ft 372kts
18-Apr-20 17:51 34.668196 -118.730873 303 28757ft 377kts
18-Apr-20 17:52 34.731854 -118.833026 303 29868ft 383kts
18-Apr-20 17:53 34.800023 -118.934302 313 30675ft 400kts
18-Apr-20 17:54 34.896892 -119.007754 322 31530ft 415kts
18-Apr-20 17:55 34.994930 -119.078032 323 32909ft 405kts
18-Apr-20 17:56 35.090416 -119.146574 322 34088ft 398kts
18-Apr-20 17:57 35.185008 -119.214640 322 34996ft 396kts
18-Apr-20 17:58 35.279595 -119.282885 322 35807ft 395kts
18-Apr-20 17:59 35.374017 -119.351197 322 36114ft 393kts
18-Apr-20 18:00 35.468280 -119.419589 323 36118ft 394kts
18-Apr-20 18:01 35.561193 -119.489261 317 36113ft 389kts
18-Apr-20 18:02 35.644189 -119.573144 315 36112ft 386kts
18-Apr-20 18:03 35.726243 -119.657047 314 36106ft 386kts
18-Apr-20 18:04 35.808933 -119.741836 314 36124ft 388kts
18-Apr-20 18:05 35.891495 -119.826737 314 36129ft 388kts
18-Apr-20 18:06 35.969724 -119.916624 311 35700ft 382kts
18-Apr-20 18:07 36.046723 -120.007939 311 34726ft 386kts
18-Apr-20 18:08 36.123730 -120.099516 311 33781ft 388kts
18-Apr-20 18:09 36.200410 -120.190977 311 32803ft 383kts
18-Apr-20 18:10 36.276395 -120.281874 311 31807ft 377kts
18-Apr-20 18:11 36.351042 -120.371420 312 30842ft 372kts
18-Apr-20 18:12 36.424838 -120.460185 312 30047ft 368kts
18-Apr-20 18:13 36.497964 -120.548398 312 29220ft 365kts
18-Apr-20 18:14 36.571727 -120.633804 315 28388ft 362kts
18-Apr-20 18:15 36.644888 -120.714844 315 27029ft 347kts
18-Apr-20 18:16 36.715131 -120.792861 315 25393ft 332kts
18-Apr-20 18:17 36.782311 -120.867647 316 23794ft 317kts
18-Apr-20 18:18 36.847335 -120.939674 316 22232ft 311kts
18-Apr-20 18:19 36.911400 -121.010820 317 20660ft 307kts
18-Apr-20 18:20 36.974707 -121.081291 317 19082ft 305kts
18-Apr-20 18:22 37.037719 -121.151602 317 17460ft 303kts
18-Apr-20 18:23 37.100019 -121.221278 317 15918ft 299kts
18-Apr-20 18:24 37.161368 -121.291015 316 14335ft 296kts
18-Apr-20 18:25 37.221340 -121.360841 316 12775ft 293kts
18-Apr-20 18:26 37.280628 -121.429928 316 11240ft 289kts
18-Apr-20 18:27 37.338402 -121.497387 316 10110ft 273kts
18-Apr-20 18:28 37.391912 -121.559704 317 9265ft 253kts
18-Apr-20 18:29 37.442740 -121.619371 308 8092ft 247kts
18-Apr-20 18:30 37.482446 -121.688875 305 7050ft 238kts
18-Apr-20 18:31 37.521524 -121.757342 305 6356ft 243kts
18-Apr-20 18:32 37.539067 -121.838592 279 5586ft 244kts
18-Apr-20 18:33 37.548905 -121.923129 279 4760ft 243kts
18-Apr-20 18:34 37.563353 -122.005236 304 3826ft 248kts
18-Apr-20 18:35 37.605674 -122.070291 309 3000ft 230kts
18-Apr-20 18:36 37.641179 -122.124064 308 1823ft 177kts
18-Apr-20 18:37 37.667510 -122.162997 308 1096ft 136kts
18-Apr-20 18:38 37.691677 -122.199490 307 363ft 135kts
18-Apr-20 18:39 37.711348 -122.229116 315 13ft 37kts
18-Apr-20 18:39 37.713935 -122.231306 343 13ft 7kts
18-Apr-20 18:41 37.713622 -122.228624 131 13ft 23kts
18-Apr-20 18:42 37.711635 -122.223710 41 12ft 8kts
18-Apr-20 18:42 37.712980 -122.222002 107 13ft 4kts
18-Apr-20 18:43 37.710324 -122.218000 116 13ft 8kts

Navigation Log

Ident Type
Flight plan parsing failed, navigation log unavailable